createdAt,value
2018-03-31T00:01:17.473Z,9.10
2018-03-31T00:03:44.533Z,9.00
2018-03-31T00:06:11.587Z,9.10
2018-03-31T00:08:38.660Z,9.20
2018-03-31T00:11:05.721Z,9.30
2018-03-31T00:13:33.569Z,9.30
2018-03-31T00:16:00.650Z,9.30
2018-03-31T00:18:27.749Z,9.30
2018-03-31T00:20:54.832Z,9.30
2018-03-31T00:23:22.664Z,9.40
2018-03-31T00:25:49.747Z,9.40
2018-03-31T00:28:17.575Z,9.30
2018-03-31T00:30:44.653Z,9.30
2018-03-31T00:33:12.490Z,9.20
2018-03-31T00:35:39.580Z,9.20
2018-03-31T00:38:07.401Z,9.20
2018-03-31T00:40:34.469Z,9.20
2018-03-31T00:43:01.561Z,9.10
2018-03-31T00:45:28.617Z,9.00
2018-03-31T00:47:55.681Z,9.00
2018-03-31T00:50:22.783Z,9.00
2018-03-31T00:52:49.860Z,8.90
2018-03-31T00:55:16.916Z,8.90
2018-03-31T00:57:44.009Z,8.90
2018-03-31T01:00:11.085Z,8.90
2018-03-31T01:02:38.156Z,8.90
2018-03-31T01:05:05.358Z,8.90
2018-03-31T01:07:32.444Z,8.90
2018-03-31T01:09:59.532Z,9.00
2018-03-31T01:12:26.590Z,9.00
2018-03-31T01:14:53.681Z,9.00
2018-03-31T01:17:20.732Z,9.00
2018-03-31T01:19:47.790Z,9.00
2018-03-31T01:22:14.868Z,9.00
2018-03-31T01:24:45.700Z,9.00
2018-03-31T01:27:12.759Z,9.00
2018-03-31T01:29:39.848Z,9.00
2018-03-31T01:32:06.958Z,9.00
2018-03-31T01:34:34.041Z,8.90
2018-03-31T01:37:01.896Z,8.90
2018-03-31T01:39:28.948Z,8.90
2018-03-31T01:41:56.779Z,8.70
2018-03-31T01:44:24.648Z,8.70
2018-03-31T01:46:51.723Z,8.70
2018-03-31T01:49:18.783Z,8.60
2018-03-31T01:51:46.603Z,8.50
2018-03-31T01:54:13.665Z,8.50
2018-03-31T01:56:40.709Z,8.50
2018-03-31T01:59:07.811Z,8.50
2018-03-31T02:01:34.851Z,8.50
2018-03-31T02:04:01.905Z,8.50
2018-03-31T02:06:29.011Z,8.40
2018-03-31T02:08:56.061Z,8.40
2018-03-31T02:11:23.139Z,8.40
2018-03-31T02:13:50.962Z,8.40
2018-03-31T02:16:18.066Z,8.40
2018-03-31T02:18:46.050Z,8.40
2018-03-31T02:21:13.139Z,8.50
2018-03-31T02:23:40.198Z,8.40
2018-03-31T02:26:07.249Z,8.50
2018-03-31T02:28:34.328Z,8.40
2018-03-31T02:31:01.395Z,8.40
2018-03-31T02:33:28.464Z,8.40
2018-03-31T02:35:55.569Z,8.40
2018-03-31T02:38:22.668Z,8.30
2018-03-31T02:40:49.731Z,8.30
2018-03-31T02:43:16.796Z,8.30
2018-03-31T02:45:44.653Z,8.30
2018-03-31T02:48:12.498Z,8.20
2018-03-31T02:50:39.555Z,8.30
2018-03-31T02:53:06.607Z,8.30
2018-03-31T02:55:33.709Z,8.30
2018-03-31T02:58:00.763Z,8.20
2018-03-31T03:00:38.487Z,8.30
2018-03-31T03:03:05.553Z,8.30
2018-03-31T03:05:32.641Z,8.20
2018-03-31T03:07:59.685Z,8.10
2018-03-31T03:10:26.756Z,8.20
2018-03-31T03:12:53.837Z,8.10
2018-03-31T03:15:20.894Z,8.20
2018-03-31T03:17:47.976Z,8.30
2018-03-31T03:20:15.046Z,8.30
2018-03-31T03:22:42.119Z,8.20
2018-03-31T03:25:09.170Z,8.10
2018-03-31T03:27:36.274Z,8.10
2018-03-31T03:30:03.337Z,8.20
2018-03-31T03:32:30.390Z,8.20
2018-03-31T03:34:59.392Z,8.30
2018-03-31T03:37:26.438Z,8.20
2018-03-31T03:39:53.505Z,8.20
2018-03-31T03:42:20.580Z,8.10
2018-03-31T03:44:47.662Z,8.10
2018-03-31T03:47:14.740Z,7.90
2018-03-31T03:49:41.822Z,7.90
2018-03-31T03:52:09.661Z,8.00
2018-03-31T03:54:36.869Z,7.90
2018-03-31T03:57:03.930Z,8.00
2018-03-31T03:59:31.759Z,8.10
2018-03-31T04:01:58.853Z,8.00
2018-03-31T04:04:25.895Z,8.00
2018-03-31T04:06:52.935Z,8.10
2018-03-31T04:09:20.005Z,8.00
2018-03-31T04:11:47.074Z,8.10
2018-03-31T04:14:14.161Z,8.00
2018-03-31T04:16:41.225Z,8.00
2018-03-31T04:19:08.393Z,7.90
2018-03-31T04:21:36.282Z,7.80
2018-03-31T04:24:03.333Z,7.90
2018-03-31T04:26:30.418Z,7.90
2018-03-31T04:28:57.471Z,7.80
2018-03-31T04:31:24.551Z,7.80
2018-03-31T04:33:51.617Z,7.80
2018-03-31T04:36:18.800Z,7.70
2018-03-31T04:38:46.684Z,7.60
2018-03-31T04:41:14.512Z,7.60
2018-03-31T04:43:41.595Z,7.50
2018-03-31T04:46:08.673Z,7.60
2018-03-31T04:48:39.402Z,7.60
2018-03-31T04:51:06.476Z,7.50
2018-03-31T04:53:33.574Z,7.60
2018-03-31T04:56:00.669Z,7.60
2018-03-31T04:58:27.748Z,7.60
2018-03-31T05:00:55.601Z,7.70
2018-03-31T05:03:22.678Z,7.70
2018-03-31T05:05:49.747Z,7.70
2018-03-31T05:08:16.800Z,7.70
2018-03-31T05:10:43.895Z,7.70
2018-03-31T05:13:10.989Z,7.70
2018-03-31T05:15:38.075Z,7.80
2018-03-31T05:18:05.122Z,7.80
2018-03-31T05:20:32.176Z,7.70
2018-03-31T05:22:59.266Z,7.80
2018-03-31T05:25:26.340Z,7.70
2018-03-31T05:27:53.398Z,7.70
2018-03-31T05:30:20.489Z,7.70
2018-03-31T05:32:47.565Z,7.70
2018-03-31T05:35:15.593Z,7.80
2018-03-31T05:37:42.648Z,7.90
2018-03-31T05:40:09.727Z,7.90
2018-03-31T05:42:36.798Z,7.90
2018-03-31T05:45:03.869Z,8.00
2018-03-31T05:47:31.929Z,8.00
2018-03-31T05:49:59.010Z,7.90
2018-03-31T05:52:26.415Z,8.00
2018-03-31T05:54:53.489Z,8.10
2018-03-31T05:57:20.534Z,8.10
2018-03-31T05:59:47.605Z,8.20
2018-03-31T06:02:14.730Z,8.10
2018-03-31T06:04:41.811Z,8.10
2018-03-31T06:07:08.868Z,8.20
2018-03-31T06:09:36.701Z,8.30
2018-03-31T06:12:03.817Z,8.30
2018-03-31T06:14:31.896Z,8.40
2018-03-31T06:16:59.017Z,8.60
2018-03-31T06:19:26.094Z,8.60
2018-03-31T06:21:53.154Z,8.70
2018-03-31T06:24:20.249Z,8.80
2018-03-31T06:26:48.067Z,9.00
2018-03-31T06:29:15.151Z,8.90
2018-03-31T06:31:42.256Z,9.10
2018-03-31T06:34:09.319Z,9.20
2018-03-31T06:36:36.380Z,9.30
2018-03-31T06:39:03.454Z,9.40
2018-03-31T06:41:31.278Z,9.50
2018-03-31T06:43:58.361Z,9.50
2018-03-31T06:46:27.392Z,9.50
2018-03-31T06:48:54.467Z,9.60
2018-03-31T06:51:21.524Z,9.60
2018-03-31T06:53:48.609Z,9.80
2018-03-31T06:56:17.492Z,9.80
2018-03-31T06:58:45.337Z,9.90
2018-03-31T07:01:13.426Z,9.90
2018-03-31T07:03:41.418Z,10.20
2018-03-31T07:06:08.559Z,10.10
2018-03-31T07:08:35.816Z,10.20
2018-03-31T07:11:02.957Z,10.30
2018-03-31T07:13:30.775Z,10.50
2018-03-31T07:15:57.886Z,10.50
2018-03-31T07:18:25.711Z,10.40
2018-03-31T07:20:52.808Z,10.40
2018-03-31T07:23:19.873Z,10.60
2018-03-31T07:25:46.919Z,10.80
2018-03-31T07:28:14.006Z,10.90
2018-03-31T07:30:41.068Z,11.10
2018-03-31T07:33:08.177Z,11.20
2018-03-31T07:35:35.243Z,11.30
2018-03-31T07:38:02.306Z,11.50
2018-03-31T07:40:29.374Z,11.60
2018-03-31T07:42:57.223Z,11.20
2018-03-31T07:45:24.310Z,11.20
2018-03-31T07:47:51.391Z,11.30
2018-03-31T07:50:18.465Z,11.20
2018-03-31T07:52:45.530Z,11.20
2018-03-31T07:55:12.632Z,11.20
2018-03-31T07:57:40.449Z,11.00
2018-03-31T08:00:08.517Z,11.00
2018-03-31T08:02:35.604Z,10.90
2018-03-31T08:05:03.667Z,10.80
2018-03-31T08:07:30.740Z,10.70
2018-03-31T08:09:57.839Z,10.80
2018-03-31T08:12:24.897Z,10.70
2018-03-31T08:14:51.950Z,10.80
2018-03-31T08:17:19.113Z,11.00
2018-03-31T08:19:46.913Z,11.10
2018-03-31T08:22:19.601Z,11.10
2018-03-31T08:24:46.661Z,11.20
2018-03-31T08:27:13.708Z,11.20
2018-03-31T08:29:40.789Z,11.10
2018-03-31T08:32:07.862Z,11.10
2018-03-31T08:34:34.940Z,11.00
2018-03-31T08:37:01.997Z,11.20
2018-03-31T08:39:29.232Z,11.20
2018-03-31T08:41:56.356Z,11.20
2018-03-31T08:44:23.436Z,11.00
2018-03-31T08:46:50.563Z,11.30
2018-03-31T08:49:36.453Z,11.40
2018-03-31T08:52:03.528Z,11.60
2018-03-31T08:54:30.940Z,11.70
2018-03-31T08:57:08.467Z,11.60
2018-03-31T08:59:35.534Z,11.50
2018-03-31T09:02:03.922Z,11.60
2018-03-31T09:04:32.841Z,11.50
2018-03-31T09:07:00.920Z,11.50
2018-03-31T09:09:28.339Z,11.60
2018-03-31T09:11:55.482Z,11.70
2018-03-31T09:14:22.576Z,12.00
2018-03-31T09:16:49.647Z,11.90
2018-03-31T09:19:16.732Z,12.00
2018-03-31T09:21:45.004Z,12.00
2018-03-31T09:24:12.084Z,12.00
2018-03-31T09:26:39.136Z,12.00
2018-03-31T09:29:09.796Z,11.80
2018-03-31T09:31:36.882Z,12.00
2018-03-31T09:34:03.928Z,12.10
2018-03-31T09:36:31.017Z,12.20
2018-03-31T09:38:58.064Z,12.50
2018-03-31T09:41:25.150Z,12.50
2018-03-31T09:43:52.199Z,12.60
2018-03-31T09:46:19.289Z,12.40
2018-03-31T09:48:47.386Z,12.60
2018-03-31T09:51:25.430Z,12.60
2018-03-31T09:53:52.523Z,12.80
2018-03-31T09:56:19.675Z,12.90
2018-03-31T09:58:48.732Z,12.70
2018-03-31T10:01:15.811Z,12.90
2018-03-31T10:03:43.213Z,12.80
2018-03-31T10:06:10.327Z,12.40
2018-03-31T10:08:37.438Z,12.70
2018-03-31T10:11:04.536Z,12.90
2018-03-31T10:13:31.593Z,13.10
2018-03-31T10:15:58.667Z,13.10
2018-03-31T10:18:25.745Z,13.00
2018-03-31T10:20:53.589Z,13.30
2018-03-31T10:23:20.649Z,13.30
2018-03-31T10:25:47.797Z,13.00
2018-03-31T10:28:14.857Z,12.90
2018-03-31T10:30:42.689Z,13.00
2018-03-31T10:33:09.772Z,13.00
2018-03-31T10:35:37.618Z,13.60
2018-03-31T10:38:04.689Z,13.60
2018-03-31T10:40:32.534Z,13.90
2018-03-31T10:43:01.601Z,13.90
2018-03-31T10:45:28.665Z,13.70
2018-03-31T10:48:00.108Z,13.60
2018-03-31T10:50:27.161Z,13.60
2018-03-31T10:53:06.285Z,13.50
2018-03-31T10:55:33.361Z,13.40
2018-03-31T10:58:00.453Z,13.30
2018-03-31T11:00:27.501Z,13.40
2018-03-31T11:02:56.496Z,13.60
2018-03-31T11:05:23.586Z,13.50
2018-03-31T11:07:51.620Z,13.40
2018-03-31T11:10:36.730Z,13.30
2018-03-31T11:13:03.778Z,13.50
2018-03-31T11:15:30.868Z,13.40
2018-03-31T11:17:57.950Z,13.30
2018-03-31T11:23:39.167Z,13.20
2018-03-31T11:26:06.246Z,12.80
2018-03-31T11:28:33.310Z,12.80
2018-03-31T11:31:00.404Z,12.80
2018-03-31T11:33:27.501Z,13.10
2018-03-31T11:35:54.556Z,13.40
2018-03-31T11:38:21.635Z,13.40
2018-03-31T11:40:51.952Z,13.50
2018-03-31T11:43:19.011Z,13.50
2018-03-31T11:45:46.080Z,13.10
2018-03-31T11:48:13.179Z,12.60
2018-03-31T11:50:40.235Z,12.70
2018-03-31T11:53:07.288Z,13.10
2018-03-31T11:55:36.306Z,13.20
2018-03-31T11:58:08.250Z,13.40
2018-03-31T12:00:36.346Z,13.80
2018-03-31T12:03:03.433Z,14.10
2018-03-31T12:05:31.263Z,14.20
2018-03-31T12:07:58.347Z,14.20
2018-03-31T12:10:26.173Z,14.00
2018-03-31T12:12:53.266Z,14.00
2018-03-31T12:15:20.356Z,14.20
2018-03-31T12:17:47.413Z,14.30
2018-03-31T12:20:15.226Z,14.20
2018-03-31T12:22:43.065Z,13.90
2018-03-31T12:25:10.146Z,13.90
2018-03-31T12:27:40.190Z,13.80
2018-03-31T12:30:07.273Z,14.10
2018-03-31T12:32:34.333Z,14.10
2018-03-31T12:35:01.421Z,14.30
2018-03-31T12:37:28.485Z,14.60
2018-03-31T12:39:55.552Z,14.90
2018-03-31T12:42:22.636Z,14.90
2018-03-31T12:44:50.501Z,15.30
2018-03-31T12:47:18.557Z,15.20
2018-03-31T12:49:45.622Z,15.50
2018-03-31T12:52:13.509Z,15.90
2018-03-31T12:54:41.321Z,16.00
2018-03-31T12:57:08.408Z,16.00
2018-03-31T12:59:36.230Z,16.00
2018-03-31T13:02:03.341Z,16.00
2018-03-31T13:04:30.494Z,15.90
2018-03-31T13:06:58.289Z,15.90
2018-03-31T13:09:26.377Z,15.90
2018-03-31T13:11:53.433Z,15.40
2018-03-31T13:14:20.508Z,15.30
2018-03-31T13:16:47.585Z,15.40
2018-03-31T13:19:14.668Z,15.70
2018-03-31T13:21:41.731Z,15.90
2018-03-31T13:24:09.750Z,15.80
2018-03-31T13:26:36.887Z,15.70
2018-03-31T13:29:04.698Z,15.60
2018-03-31T13:31:31.814Z,15.50
2018-03-31T13:34:00.839Z,15.40
2018-03-31T13:36:29.610Z,15.60
2018-03-31T13:38:56.684Z,15.60
2018-03-31T13:41:23.787Z,15.70
2018-03-31T13:43:50.852Z,15.80
2018-03-31T13:46:17.952Z,16.00
2018-03-31T13:48:45.788Z,15.20
2018-03-31T13:51:13.838Z,15.20
2018-03-31T13:53:40.917Z,14.90
2018-03-31T13:56:08.030Z,14.60
2018-03-31T13:58:35.088Z,14.40
2018-03-31T14:01:02.170Z,14.40
2018-03-31T14:03:29.253Z,14.40
2018-03-31T14:05:56.318Z,14.40
2018-03-31T14:08:23.381Z,14.60
2018-03-31T14:10:50.461Z,14.90
2018-03-31T14:13:18.488Z,15.20
2018-03-31T14:15:45.576Z,15.50
2018-03-31T14:18:12.662Z,15.70
2018-03-31T14:20:39.751Z,15.60
2018-03-31T14:23:06.821Z,15.50
2018-03-31T14:25:34.642Z,15.00
2018-03-31T14:28:01.712Z,15.00
2018-03-31T14:30:28.766Z,15.20
2018-03-31T14:32:55.849Z,15.10
2018-03-31T14:35:24.734Z,15.20
2018-03-31T14:37:52.564Z,15.20
2018-03-31T14:40:19.649Z,15.20
2018-03-31T14:42:47.477Z,15.20
2018-03-31T14:45:14.568Z,15.20
2018-03-31T14:47:43.406Z,15.00
2018-03-31T14:50:10.521Z,14.90
2018-03-31T14:52:37.579Z,14.90
2018-03-31T14:55:04.628Z,14.90
2018-03-31T14:57:31.703Z,14.80
2018-03-31T14:59:58.780Z,14.90
2018-03-31T15:02:29.532Z,14.80
2018-03-31T15:04:58.578Z,14.90
2018-03-31T15:07:25.654Z,14.80
2018-03-31T15:09:53.680Z,14.50
2018-03-31T15:12:20.764Z,14.40
2018-03-31T15:14:48.817Z,14.50
2018-03-31T15:17:15.859Z,14.60
2018-03-31T15:19:46.501Z,14.80
2018-03-31T15:22:13.555Z,15.00
2018-03-31T15:24:40.614Z,15.00
2018-03-31T15:27:11.116Z,15.10
2018-03-31T15:29:38.217Z,14.90
2018-03-31T15:32:06.058Z,14.60
2018-03-31T15:34:33.943Z,14.60
2018-03-31T15:37:01.043Z,14.60
2018-03-31T15:39:28.096Z,14.50
2018-03-31T15:41:55.157Z,14.50
2018-03-31T15:44:23.238Z,14.40
2018-03-31T15:46:51.292Z,14.40
2018-03-31T15:49:18.371Z,14.60
2018-03-31T15:51:45.470Z,14.70
2018-03-31T15:54:12.520Z,14.60
2018-03-31T15:56:39.597Z,14.70
2018-03-31T15:59:06.669Z,14.60
2018-03-31T16:01:33.772Z,14.60
2018-03-31T16:04:00.827Z,14.50
2018-03-31T16:06:27.881Z,14.20
2018-03-31T16:08:54.982Z,14.10
2018-03-31T16:11:22.060Z,14.00
2018-03-31T16:13:51.081Z,13.90
2018-03-31T16:16:18.134Z,13.80
2018-03-31T16:18:45.216Z,13.60
2018-03-31T16:21:13.058Z,13.30
2018-03-31T16:23:40.120Z,13.30
2018-03-31T16:26:07.981Z,13.10
2018-03-31T16:28:35.799Z,13.00
2018-03-31T16:31:02.855Z,13.00
2018-03-31T16:33:29.928Z,12.90
2018-03-31T16:35:57.017Z,12.90
2018-03-31T16:38:24.068Z,12.90
2018-03-31T16:40:51.161Z,12.90
2018-03-31T16:43:18.246Z,12.90
2018-03-31T16:45:46.085Z,12.80
2018-03-31T16:48:13.942Z,12.80
2018-03-31T16:50:41.017Z,12.70
2018-03-31T16:53:08.869Z,12.90
2018-03-31T16:55:35.939Z,12.80
2018-03-31T16:58:03.791Z,13.10
2018-03-31T17:00:30.855Z,13.10
2018-03-31T17:02:58.673Z,13.30
2018-03-31T17:05:25.753Z,13.30
2018-03-31T17:07:52.852Z,13.20
2018-03-31T17:10:19.918Z,13.10
2018-03-31T17:12:46.974Z,13.00
2018-03-31T17:15:14.363Z,13.00
2018-03-31T17:17:42.242Z,12.90
2018-03-31T17:20:10.066Z,12.90
2018-03-31T17:22:38.114Z,12.90
2018-03-31T17:25:05.254Z,12.90
2018-03-31T17:27:32.309Z,13.00
2018-03-31T17:29:59.401Z,13.10
2018-03-31T17:32:27.237Z,12.80
2018-03-31T17:34:55.211Z,12.60
2018-03-31T17:37:22.294Z,12.60
2018-03-31T17:39:50.123Z,12.20
2018-03-31T17:42:17.200Z,12.20
2018-03-31T17:44:44.273Z,12.00
2018-03-31T17:47:11.367Z,11.80
2018-03-31T17:49:38.446Z,11.60
2018-03-31T17:52:05.506Z,11.40
2018-03-31T17:54:33.378Z,11.20
2018-03-31T17:57:01.223Z,11.00
2018-03-31T17:59:28.310Z,10.90
2018-03-31T18:01:55.376Z,10.80
2018-03-31T18:04:22.440Z,10.60
2018-03-31T18:06:49.857Z,10.50
2018-03-31T18:09:16.914Z,10.30
2018-03-31T18:11:44.001Z,10.10
2018-03-31T18:14:11.127Z,10.00
2018-03-31T18:16:38.171Z,9.80
2018-03-31T18:19:05.242Z,9.60
2018-03-31T18:21:32.294Z,9.30
2018-03-31T18:23:59.362Z,9.10
2018-03-31T18:26:26.457Z,9.00
2018-03-31T18:28:53.499Z,8.80
2018-03-31T18:31:20.571Z,8.70
2018-03-31T18:33:47.624Z,8.60
2018-03-31T18:36:14.692Z,8.60
2018-03-31T18:38:41.744Z,8.50
2018-03-31T18:41:08.812Z,8.40
2018-03-31T18:43:35.911Z,8.40
2018-03-31T18:46:03.001Z,8.30
2018-03-31T18:48:30.882Z,8.10
2018-03-31T18:50:58.702Z,8.10
2018-03-31T18:53:25.757Z,8.10
2018-03-31T18:55:52.847Z,8.10
2018-03-31T18:58:20.714Z,8.10
2018-03-31T19:00:48.527Z,8.10
2018-03-31T19:03:15.597Z,8.10
2018-03-31T19:05:42.689Z,8.00
2018-03-31T19:08:09.755Z,8.00
2018-03-31T19:10:36.836Z,8.00
2018-03-31T19:13:03.881Z,8.00
2018-03-31T19:15:30.972Z,8.00
2018-03-31T19:17:58.077Z,8.10
2018-03-31T19:20:25.214Z,8.10
2018-03-31T19:22:52.319Z,8.00
2018-03-31T19:25:24.959Z,8.00
2018-03-31T19:27:52.053Z,8.00
2018-03-31T19:30:19.127Z,7.90
2018-03-31T19:32:46.250Z,7.90
2018-03-31T19:35:13.317Z,7.90
2018-03-31T19:37:40.383Z,7.90
2018-03-31T19:40:07.486Z,7.80
2018-03-31T19:42:35.325Z,7.90
2018-03-31T19:45:02.416Z,7.90
2018-03-31T19:47:29.501Z,7.90
2018-03-31T19:49:56.563Z,7.90
2018-03-31T19:52:23.609Z,7.80
2018-03-31T19:54:50.699Z,7.80
2018-03-31T19:57:17.760Z,7.80
2018-03-31T19:59:44.817Z,7.60
2018-03-31T20:02:11.902Z,7.50
2018-03-31T20:04:38.960Z,7.30
2018-03-31T20:07:06.058Z,7.30
2018-03-31T20:09:33.113Z,7.20
2018-03-31T20:12:00.203Z,7.20
2018-03-31T20:14:27.265Z,7.20
2018-03-31T20:16:55.108Z,7.10
2018-03-31T20:19:22.195Z,7.10
2018-03-31T20:21:49.295Z,7.10
2018-03-31T20:24:16.367Z,7.00
2018-03-31T20:26:44.232Z,6.90
2018-03-31T20:29:11.297Z,6.90
2018-03-31T20:31:38.346Z,6.90
2018-03-31T20:34:06.184Z,6.90
2018-03-31T20:36:33.251Z,6.90
2018-03-31T20:39:01.101Z,6.80
2018-03-31T20:41:28.164Z,6.80
2018-03-31T20:43:55.987Z,6.90
2018-03-31T20:46:23.040Z,6.90
2018-03-31T20:48:50.111Z,6.90
2018-03-31T20:51:17.159Z,6.90
2018-03-31T20:53:44.241Z,7.00
2018-03-31T20:56:11.297Z,7.00
2018-03-31T20:58:38.381Z,7.00
2018-03-31T21:01:06.231Z,7.00
2018-03-31T21:03:33.299Z,7.00
2018-03-31T21:06:00.381Z,7.00
2018-03-31T21:08:28.193Z,7.10
2018-03-31T21:10:55.285Z,7.10
2018-03-31T21:13:22.340Z,7.10
2018-03-31T21:15:50.212Z,7.20
2018-03-31T21:18:18.037Z,7.30
2018-03-31T21:20:45.102Z,7.30
2018-03-31T21:23:12.185Z,7.40
2018-03-31T21:25:39.257Z,7.40
2018-03-31T21:28:06.337Z,7.30
2018-03-31T21:30:33.382Z,7.40
2018-03-31T21:33:00.459Z,7.40
2018-03-31T21:35:28.269Z,7.50
2018-03-31T21:37:55.330Z,7.50
2018-03-31T21:40:22.419Z,7.60
2018-03-31T21:42:50.255Z,7.60
2018-03-31T21:45:17.337Z,7.60
2018-03-31T21:47:45.167Z,7.80
2018-03-31T21:50:12.235Z,7.80
2018-03-31T21:52:39.323Z,7.80
2018-03-31T21:55:06.388Z,7.70
2018-03-31T21:57:33.458Z,7.80
2018-03-31T22:00:00.558Z,7.80
2018-03-31T22:02:27.638Z,7.80
2018-03-31T22:04:54.693Z,7.80
2018-03-31T22:07:21.771Z,7.70
2018-03-31T22:09:48.810Z,7.70
2018-03-31T22:12:15.863Z,7.60
2018-03-31T22:14:48.647Z,7.60
2018-03-31T22:17:15.690Z,7.60
2018-03-31T22:19:42.730Z,7.50
2018-03-31T22:22:09.818Z,7.50
2018-03-31T22:24:37.633Z,7.40
2018-03-31T22:27:04.713Z,7.50
2018-03-31T22:29:32.536Z,7.40
2018-03-31T22:31:59.613Z,7.40
2018-03-31T22:34:26.677Z,7.40
2018-03-31T22:36:54.400Z,7.40
2018-03-31T22:39:21.457Z,7.40
2018-03-31T22:41:48.529Z,7.40
2018-03-31T22:44:15.605Z,7.50
2018-03-31T22:46:42.667Z,7.50
2018-03-31T22:49:09.757Z,7.50
2018-03-31T22:51:36.808Z,7.50
2018-03-31T22:54:03.898Z,7.40
2018-03-31T22:56:30.953Z,7.50
2018-03-31T22:58:58.026Z,7.50
2018-03-31T23:01:25.081Z,7.60
2018-03-31T23:03:52.181Z,7.60
2018-03-31T23:06:20.020Z,7.60
2018-03-31T23:08:47.077Z,7.50
2018-03-31T23:11:14.139Z,7.50
2018-03-31T23:13:41.975Z,7.60
2018-03-31T23:16:09.081Z,7.60
2018-03-31T23:18:36.161Z,7.60
2018-03-31T23:21:03.213Z,7.60
2018-03-31T23:23:30.318Z,7.50
2018-03-31T23:25:57.378Z,7.50
2018-03-31T23:28:24.474Z,7.50
2018-03-31T23:30:51.528Z,7.40
2018-03-31T23:33:18.586Z,7.50
2018-03-31T23:35:46.459Z,7.60
2018-03-31T23:38:14.275Z,7.80
2018-03-31T23:40:41.330Z,7.80
2018-03-31T23:43:08.414Z,7.70
2018-03-31T23:45:36.232Z,7.60
2018-03-31T23:48:03.294Z,7.60
2018-03-31T23:50:31.151Z,7.60
2018-03-31T23:52:58.343Z,7.60
2018-03-31T23:55:26.197Z,7.60
2018-03-31T23:57:53.247Z,7.60
